Time;durP1;ratioP1;P1;durP2;ratioP2;P2;SDS_P1;SDS_P2;PMS_P1;PMS_P2;Temp;Humidity;BMP_temperature;BMP_pressure;BME280_temperature;BME280_humidity;BME280_pressure;Samples;Min_cycle;Max_cycle;Signal;HPM_P1;HPM_P2
2022/03/06 00:00:38;;;;;;;4.65;2.78;;;0.30;99.90;;;;;;5097400;28;20024;-88
2022/03/06 00:03:04;;;;;;;9.85;4.68;;;0.30;99.90;;;;;;5097645;28;20035;-87
2022/03/06 00:05:30;;;;;;;20.45;7.65;;;0.30;99.90;;;;;;5097399;28;20121;-87
2022/03/06 00:07:59;;;;;;;7.80;4.38;;;0.30;99.90;;;;;;5096943;28;20024;-87
2022/03/06 00:10:25;;;;;;;17.05;6.40;;;0.30;99.90;;;;;;5097107;28;20028;-87
2022/03/06 00:12:51;;;;;;;11.32;4.78;;;0.30;99.90;;;;;;5097165;28;20467;-87
2022/03/06 00:18:45;;;;;;;22.50;7.65;;;0.20;99.90;;;;;;5098549;28;20386;-87
2022/03/06 00:21:12;;;;;;;15.13;5.85;;;0.20;99.90;;;;;;5096948;28;20032;-87
2022/03/06 00:23:38;;;;;;;60.10;13.73;;;0.30;99.90;;;;;;5097243;28;20047;-88
2022/03/06 00:26:04;;;;;;;19.60;7.03;;;0.30;99.90;;;;;;5096763;28;20479;-87
2022/03/06 00:28:31;;;;;;;10.32;4.78;;;0.30;99.90;;;;;;5096976;28;20024;-88
2022/03/06 00:30:56;;;;;;;6.38;3.75;;;0.30;99.90;;;;;;5096969;28;20028;-88
2022/03/06 00:33:22;;;;;;;7.95;4.05;;;0.30;99.90;;;;;;5097933;28;20028;-87
2022/03/06 00:35:48;;;;;;;7.13;3.97;;;0.40;99.90;;;;;;5096729;28;20016;-88
2022/03/06 00:38:14;;;;;;;6.13;3.78;;;0.30;99.90;;;;;;5096910;28;20038;-88
2022/03/06 00:40:42;;;;;;;13.13;5.07;;;0.30;99.90;;;;;;5096744;28;20032;-87
2022/03/06 00:43:08;;;;;;;13.38;5.60;;;0.30;99.90;;;;;;5098074;28;20020;-88
2022/03/06 00:45:33;;;;;;;6.50;3.92;;;0.30;99.90;;;;;;5096698;28;20027;-88
2022/03/06 00:48:00;;;;;;;6.45;3.72;;;0.30;99.90;;;;;;5097864;28;20466;-87
2022/03/06 00:50:25;;;;;;;7.70;3.90;;;0.30;99.90;;;;;;5096577;28;20050;-87
2022/03/06 00:52:52;;;;;;;10.68;4.65;;;0.30;99.90;;;;;;5096351;28;20078;-87
2022/03/06 00:55:18;;;;;;;6.35;3.70;;;0.30;99.90;;;;;;5096472;28;20020;-87
2022/03/06 00:57:44;;;;;;;8.95;4.40;;;0.40;99.90;;;;;;5096250;28;20027;-87
2022/03/06 01:00:10;;;;;;;8.40;3.83;;;0.40;99.90;;;;;;5096309;28;20039;-87
2022/03/06 01:02:36;;;;;;;5.05;3.25;;;0.40;99.90;;;;;;5095595;28;20028;-87
2022/03/06 01:05:02;;;;;;;9.10;4.18;;;0.40;99.90;;;;;;5096414;28;20039;-87
2022/03/06 01:07:28;;;;;;;6.18;3.92;;;0.40;99.90;;;;;;5094960;28;20396;-88
2022/03/06 01:09:54;;;;;;;5.72;3.88;;;0.50;99.90;;;;;;5096025;28;20024;-87
2022/03/06 01:12:20;;;;;;;8.02;4.53;;;0.50;99.90;;;;;;5096026;28;20035;-88
2022/03/06 01:14:46;;;;;;;8.63;4.93;;;0.40;99.90;;;;;;5095993;28;20020;-88
2022/03/06 01:17:12;;;;;;;13.48;6.60;;;0.40;99.90;;;;;;5097087;28;20028;-88
2022/03/06 01:19:38;;;;;;;15.82;7.30;;;0.40;99.90;;;;;;5096080;28;20028;-88
2022/03/06 01:22:04;;;;;;;14.55;7.22;;;0.40;99.90;;;;;;5096988;28;20028;-88
2022/03/06 01:24:29;;;;;;;15.13;7.18;;;0.40;99.90;;;;;;5097228;28;20024;-88
2022/03/06 01:26:55;;;;;;;11.57;6.78;;;0.40;99.90;;;;;;5097037;28;20064;-89
2022/03/06 01:29:22;;;;;;;12.00;6.55;;;0.40;99.90;;;;;;5097023;28;20054;-89
2022/03/06 01:31:48;;;;;;;11.10;6.25;;;0.40;99.90;;;;;;5096062;28;20020;-88
2022/03/06 01:34:14;;;;;;;9.98;5.60;;;0.40;99.90;;;;;;5097117;28;20444;-89
2022/03/06 01:36:40;;;;;;;9.75;5.07;;;0.40;99.90;;;;;;5095980;28;20024;-89
2022/03/06 01:39:06;;;;;;;29.52;8.45;;;0.30;99.90;;;;;;5095634;28;20114;-89
2022/03/06 01:41:35;;;;;;;19.08;6.68;;;0.30;99.90;;;;;;5097057;28;20062;-88
2022/03/06 01:44:02;;;;;;;10.77;5.10;;;0.30;99.90;;;;;;5096634;28;20027;-89
2022/03/06 01:46:28;;;;;;;8.57;4.43;;;0.30;99.90;;;;;;5096604;28;20028;-88
2022/03/06 01:48:54;;;;;;;10.55;4.93;;;0.30;99.90;;;;;;5096664;28;20413;-89
2022/03/06 01:51:19;;;;;;;10.02;4.53;;;0.30;99.90;;;;;;5095591;28;20493;-88
2022/03/06 01:53:45;;;;;;;9.68;4.35;;;0.30;99.90;;;;;;5095245;28;20024;-88
2022/03/06 01:56:13;;;;;;;6.43;4.30;;;0.30;99.90;;;;;;5095366;28;20020;-88
2022/03/06 01:58:39;;;;;;;9.75;4.85;;;0.30;99.90;;;;;;5095326;28;20386;-88
2022/03/06 02:01:05;;;;;;;18.77;6.03;;;0.30;99.90;;;;;;5095314;28;20024;-88
2022/03/06 02:03:30;;;;;;;11.75;5.00;;;0.30;99.90;;;;;;5095193;28;20035;-89
2022/03/06 02:05:56;;;;;;;8.70;4.60;;;0.30;99.90;;;;;;5096413;28;20020;-89
2022/03/06 02:08:22;;;;;;;9.20;4.57;;;0.30;99.90;;;;;;5095122;28;20024;-88
2022/03/06 02:10:54;;;;;;;7.22;4.97;;;0.30;99.90;;;;;;5095170;28;20024;-88
2022/03/06 02:13:20;;;;;;;8.38;4.40;;;0.30;99.90;;;;;;5094866;28;20016;-89
2022/03/06 02:15:46;;;;;;;8.65;4.85;;;0.30;99.90;;;;;;5094969;28;20021;-88
2022/03/06 02:18:12;;;;;;;9.82;5.40;;;0.30;99.90;;;;;;5094844;28;20028;-88
2022/03/06 02:20:38;;;;;;;8.13;4.63;;;0.30;99.90;;;;;;5094945;28;20035;-88
2022/03/06 02:23:04;;;;;;;7.82;4.53;;;0.30;99.90;;;;;;5094843;28;20123;-88
2022/03/06 02:25:33;;;;;;;9.15;4.75;;;0.30;99.90;;;;;;5094596;28;20585;-88
2022/03/06 02:28:01;;;;;;;12.98;5.55;;;0.30;99.90;;;;;;5095084;28;20476;-88
2022/03/06 02:30:29;;;;;;;9.73;4.95;;;0.30;99.90;;;;;;5094582;28;20024;-88
2022/03/06 02:32:59;;;;;;;13.32;6.50;;;0.30;99.90;;;;;;5095762;28;20024;-89
2022/03/06 02:35:26;;;;;;;15.50;6.43;;;0.30;99.90;;;;;;5094541;28;20027;-88
2022/03/06 02:37:52;;;;;;;11.52;5.75;;;0.30;99.90;;;;;;5095601;28;20024;-90
2022/03/06 02:40:21;;;;;;;13.02;5.47;;;0.30;99.90;;;;;;5094583;28;20386;-90
2022/03/06 02:42:49;;;;;;;10.95;5.40;;;0.30;99.90;;;;;;5094553;28;20410;-89
2022/03/06 02:45:20;;;;;;;12.65;5.72;;;0.30;99.90;;;;;;5094779;28;20024;-89
2022/03/06 02:47:48;;;;;;;18.35;5.47;;;0.20;99.90;;;;;;5094663;28;20111;-90
2022/03/06 02:50:17;;;;;;;10.10;4.80;;;0.20;99.90;;;;;;5096077;28;20024;-89
2022/03/06 02:52:44;;;;;;;8.82;4.30;;;0.20;99.90;;;;;;5094283;28;20085;-90
2022/03/06 02:55:11;;;;;;;10.32;4.80;;;0.20;99.90;;;;;;5094332;28;20016;-89
2022/03/06 02:57:38;;;;;;;7.57;3.92;;;0.10;99.90;;;;;;5095318;28;20031;-90
2022/03/06 03:00:07;;;;;;;9.98;4.40;;;0.10;99.90;;;;;;5094090;28;20031;-89
2022/03/06 03:02:34;;;;;;;9.38;5.07;;;0.10;99.90;;;;;;5093931;28;20451;-90
2022/03/06 03:05:00;;;;;;;10.50;5.07;;;0.10;99.90;;;;;;5094029;28;20031;-90
2022/03/06 03:07:26;;;;;;;8.13;4.22;;;0.10;99.90;;;;;;5095125;28;20020;-90
2022/03/06 03:09:52;;;;;;;6.65;4.00;;;0.10;99.90;;;;;;5093981;28;20023;-88
2022/03/06 03:12:18;;;;;;;9.43;4.43;;;0.10;99.90;;;;;;5095103;28;20020;-88
2022/03/06 03:14:44;;;;;;;12.63;5.03;;;0.10;99.90;;;;;;5093803;28;20031;-91
2022/03/06 03:17:10;;;;;;;9.40;4.75;;;0.10;99.90;;;;;;5094771;28;20024;-90
2022/03/06 03:19:35;;;;;;;7.25;4.38;;;0.10;99.90;;;;;;5094921;28;20115;-91
2022/03/06 03:22:01;;;;;;;6.82;4.07;;;0.10;99.90;;;;;;5095157;28;20059;-92
2022/03/06 03:24:27;;;;;;;8.68;4.40;;;0.10;99.90;;;;;;5093836;28;20020;-92
2022/03/06 03:26:53;;;;;;;6.05;4.15;;;0.10;99.90;;;;;;5093425;28;20051;-89
2022/03/06 03:29:19;;;;;;;5.57;3.95;;;0.10;99.90;;;;;;5093435;28;20024;-89
2022/03/06 03:31:45;;;;;;;6.10;3.75;;;0.00;99.90;;;;;;5095174;28;20081;-90
2022/03/06 03:34:11;;;;;;;5.55;3.80;;;0.10;99.90;;;;;;5094838;28;20024;-91
2022/03/06 03:36:36;;;;;;;5.13;3.80;;;0.10;99.90;;;;;;5093708;28;20047;-91
2022/03/06 03:39:04;;;;;;;5.28;3.60;;;0.10;99.90;;;;;;5093779;28;20024;-89
2022/03/06 03:41:29;;;;;;;5.60;3.78;;;0.10;99.90;;;;;;5093833;28;20027;-90
2022/03/06 03:43:56;;;;;;;6.18;3.92;;;0.00;99.90;;;;;;5093615;28;20374;-89
2022/03/06 03:46:22;;;;;;;5.25;3.60;;;0.00;99.90;;;;;;5093468;28;20539;-89
2022/03/06 03:48:48;;;;;;;5.53;3.72;;;0.00;99.90;;;;;;5093575;28;20024;-88
2022/03/06 03:51:14;;;;;;;4.85;3.28;;;0.10;99.90;;;;;;5093499;28;20028;-89
2022/03/06 03:53:39;;;;;;;6.32;3.70;;;0.10;99.90;;;;;;5094402;28;20173;-90
2022/03/06 03:56:05;;;;;;;5.63;3.80;;;0.10;99.90;;;;;;5093148;28;20024;-90
2022/03/06 03:58:32;;;;;;;5.85;3.88;;;0.10;99.90;;;;;;5093526;28;20425;-90
2022/03/06 04:00:58;;;;;;;4.82;3.40;;;0.10;99.90;;;;;;5093307;28;20024;-91
2022/03/06 04:03:24;;;;;;;7.15;3.65;;;0.10;99.90;;;;;;5093574;28;20025;-90
2022/03/06 04:05:50;;;;;;;5.47;3.30;;;0.10;99.90;;;;;;5093417;28;20056;-92
2022/03/06 04:08:17;;;;;;;6.22;3.53;;;0.10;99.90;;;;;;5086133;28;20025;-90
2022/03/06 04:10:46;;;;;;;5.68;3.53;;;0.10;99.90;;;;;;5073759;28;20024;-90
2022/03/06 04:13:17;;;;;;;4.00;3.30;;;0.10;99.90;;;;;;5095005;28;20382;-91
2022/03/06 04:15:45;;;;;;;5.32;3.70;;;0.10;99.90;;;;;;5094272;28;20028;-93
2022/03/06 04:18:11;;;;;;;5.43;3.45;;;0.00;99.90;;;;;;5093138;28;20040;-92
2022/03/06 04:20:37;;;;;;;6.93;3.50;;;0.10;99.90;;;;;;5093345;28;20032;-92
2022/03/06 04:23:03;;;;;;;6.10;3.72;;;0.00;99.90;;;;;;5093142;28;20028;-91
2022/03/06 04:25:29;;;;;;;6.15;3.45;;;0.10;99.90;;;;;;5092993;28;20177;-92
2022/03/06 04:27:54;;;;;;;6.45;3.70;;;0.10;99.90;;;;;;5092959;28;20024;-90
2022/03/06 04:30:20;;;;;;;4.25;3.17;;;0.10;99.90;;;;;;5093131;28;20024;-87
2022/03/06 04:32:46;;;;;;;6.25;3.70;;;0.10;99.90;;;;;;5094223;28;20021;-87
2022/03/06 04:35:12;;;;;;;7.10;3.78;;;0.10;99.90;;;;;;5092985;28;20026;-87
2022/03/06 04:37:38;;;;;;;4.15;2.85;;;0.10;99.90;;;;;;5094160;28;20030;-87
2022/03/06 04:40:04;;;;;;;4.78;3.38;;;0.10;99.90;;;;;;5092971;28;20028;-87
2022/03/06 04:42:29;;;;;;;4.78;3.40;;;0.10;99.90;;;;;;5096475;28;20430;-87
2022/03/06 04:44:55;;;;;;;5.45;3.30;;;0.10;99.90;;;;;;5097853;28;20028;-86
2022/03/06 04:47:21;;;;;;;6.30;3.20;;;0.10;99.90;;;;;;5098284;28;20029;-87
2022/03/06 04:49:47;;;;;;;5.95;3.42;;;0.10;99.90;;;;;;5096616;28;20469;-88
2022/03/06 04:52:12;;;;;;;6.10;3.42;;;0.10;99.90;;;;;;5098061;28;20039;-87
2022/03/06 04:54:38;;;;;;;7.05;3.05;;;0.20;99.90;;;;;;5096637;28;20111;-88
2022/03/06 04:57:04;;;;;;;4.72;2.85;;;0.20;99.90;;;;;;5096607;28;20368;-88
2022/03/06 04:59:30;;;;;;;4.90;3.20;;;0.20;99.90;;;;;;5096265;28;20032;-89
2022/03/06 05:01:56;;;;;;;3.60;3.00;;;0.20;99.90;;;;;;5098645;28;20026;-89
2022/03/06 05:04:22;;;;;;;7.32;3.25;;;0.10;99.90;;;;;;5096692;28;20085;-89
2022/03/06 05:06:48;;;;;;;4.45;3.00;;;0.10;99.90;;;;;;5096417;28;20024;-88
2022/03/06 05:09:14;;;;;;;5.75;2.92;;;0.20;99.90;;;;;;5096052;28;20032;-88
2022/03/06 05:11:40;;;;;;;3.58;2.90;;;0.20;99.90;;;;;;5097692;28;20024;-89
2022/03/06 05:14:06;;;;;;;5.05;3.35;;;0.20;99.90;;;;;;5096629;28;20022;-88
2022/03/06 05:16:32;;;;;;;4.55;2.90;;;0.20;99.90;;;;;;5096537;28;20099;-89
2022/03/06 05:18:59;;;;;;;5.57;3.25;;;0.20;99.90;;;;;;5095856;28;20086;-89
2022/03/06 05:21:25;;;;;;;4.10;3.05;;;0.30;99.90;;;;;;5096275;28;20025;-89
2022/03/06 05:23:51;;;;;;;4.47;3.38;;;0.30;99.90;;;;;;5095463;28;20032;-88
2022/03/06 05:26:17;;;;;;;4.80;3.08;;;0.30;99.90;;;;;;5095593;28;20493;-89
2022/03/06 05:28:43;;;;;;;4.20;3.03;;;0.30;99.90;;;;;;5095551;28;20024;-89
2022/03/06 05:31:09;;;;;;;4.95;3.35;;;0.30;99.90;;;;;;5095746;28;20032;-89
2022/03/06 05:33:35;;;;;;;6.15;3.25;;;0.40;99.90;;;;;;5096075;28;20028;-89
2022/03/06 05:36:01;;;;;;;6.15;3.17;;;0.40;99.90;;;;;;5095549;28;20020;-89
2022/03/06 05:38:27;;;;;;;5.35;3.13;;;0.40;99.90;;;;;;5095579;28;20020;-89
2022/03/06 05:40:53;;;;;;;5.53;3.58;;;0.40;99.90;;;;;;5095613;28;20047;-89
2022/03/06 05:43:18;;;;;;;4.68;2.90;;;0.40;99.90;;;;;;5095743;28;20024;-89
2022/03/06 05:45:50;;;;;;;5.82;4.82;;;0.40;99.90;;;;;;5095328;28;20024;-89
2022/03/06 05:48:19;;;;;;;9.65;5.30;;;0.40;99.90;;;;;;5095182;28;20467;-89
2022/03/06 05:50:46;;;;;;;5.30;3.50;;;0.40;99.90;;;;;;5094922;28;20103;-88
2022/03/06 05:53:11;;;;;;;4.68;3.05;;;0.50;99.90;;;;;;5094706;28;20335;-89
2022/03/06 05:55:37;;;;;;;4.28;2.97;;;0.50;99.90;;;;;;5095247;28;20024;-89
2022/03/06 05:58:03;;;;;;;4.32;3.17;;;0.60;99.90;;;;;;5095493;28;20120;-89
2022/03/06 06:00:29;;;;;;;10.65;3.90;;;0.60;99.90;;;;;;5095203;28;20115;-89
2022/03/06 06:02:57;;;;;;;4.68;3.15;;;0.70;99.90;;;;;;5095027;28;20031;-89
2022/03/06 06:05:24;;;;;;;3.72;2.47;;;0.80;99.90;;;;;;5094847;28;20114;-89
2022/03/06 06:07:50;;;;;;;12.23;5.38;;;0.90;99.90;;;;;;5095365;28;20201;-88
2022/03/06 06:10:16;;;;;;;15.77;6.10;;;1.00;99.90;;;;;;5094769;28;20107;-88
2022/03/06 06:12:42;;;;;;;11.00;5.15;;;1.00;99.90;;;;;;5096554;28;20051;-88
2022/03/06 06:15:09;;;;;;;12.77;4.95;;;1.10;99.90;;;;;;5095503;28;20020;-88
2022/03/06 06:17:35;;;;;;;7.40;4.30;;;1.20;99.90;;;;;;5095229;28;20165;-89
2022/03/06 06:20:04;;;;;;;32.38;12.45;;;1.30;99.90;;;;;;5094835;28;20039;-88
2022/03/06 06:22:31;;;;;;;45.25;21.73;;;1.30;99.90;;;;;;5094944;28;20081;-89
2022/03/06 06:24:57;;;;;;;40.63;15.85;;;1.40;99.90;;;;;;5094908;28;20051;-89
2022/03/06 06:27:23;;;;;;;14.10;7.00;;;1.40;99.90;;;;;;5094429;28;20073;-89
2022/03/06 06:29:48;;;;;;;9.80;5.00;;;1.50;99.90;;;;;;5094826;28;20020;-89
2022/03/06 06:32:14;;;;;;;24.75;10.02;;;1.60;99.90;;;;;;5096190;28;20356;-89
2022/03/06 06:34:40;;;;;;;9.20;4.15;;;1.60;99.90;;;;;;5095715;28;20024;-89
2022/03/06 06:37:06;;;;;;;7.25;4.40;;;1.60;99.90;;;;;;5094710;28;20028;-89
2022/03/06 06:39:32;;;;;;;23.85;10.43;;;1.60;99.90;;;;;;5094825;28;20569;-89
2022/03/06 06:41:59;;;;;;;14.13;7.13;;;1.50;99.90;;;;;;5094659;28;20051;-89
2022/03/06 06:44:25;;;;;;;17.77;7.78;;;1.50;99.90;;;;;;5094298;28;20062;-89
2022/03/06 06:46:51;;;;;;;10.73;4.63;;;1.60;99.90;;;;;;5094185;28;20446;-88
2022/03/06 06:49:17;;;;;;;19.88;7.70;;;1.70;99.90;;;;;;5095446;28;20095;-88
2022/03/06 06:51:43;;;;;;;5.97;3.55;;;1.70;99.90;;;;;;5094114;28;20370;-88
2022/03/06 06:54:08;;;;;;;7.05;4.28;;;1.80;99.90;;;;;;5094250;28;20020;-88
2022/03/06 06:56:34;;;;;;;68.95;28.73;;;1.80;99.90;;;;;;5094063;28;20032;-88
2022/03/06 06:59:00;;;;;;;32.95;16.08;;;1.80;99.90;;;;;;5094218;28;20024;-88
2022/03/06 07:01:26;;;;;;;11.30;5.43;;;1.90;99.90;;;;;;5094105;28;20471;-88
2022/03/06 07:03:51;;;;;;;27.20;12.45;;;2.00;99.90;;;;;;5093672;28;20027;-88
2022/03/06 07:06:17;;;;;;;42.92;19.98;;;2.00;99.90;;;;;;5093564;28;20028;-88
2022/03/06 07:08:43;;;;;;;10.38;5.85;;;2.00;99.90;;;;;;5095425;28;20024;-88
2022/03/06 07:11:09;;;;;;;5.53;3.60;;;2.00;99.90;;;;;;5093666;28;20028;-88
2022/03/06 07:13:34;;;;;;;4.75;3.03;;;1.90;99.90;;;;;;5093909;28;20073;-87
2022/03/06 07:16:00;;;;;;;4.32;3.15;;;2.10;99.90;;;;;;5093780;28;20024;-87
2022/03/06 07:18:26;;;;;;;11.25;8.55;;;2.20;99.90;;;;;;5093859;28;20101;-87
2022/03/06 07:20:52;;;;;;;6.03;4.00;;;2.30;99.90;;;;;;5093905;28;20031;-87
2022/03/06 07:23:18;;;;;;;9.15;5.22;;;2.30;99.90;;;;;;5093629;28;20028;-87
2022/03/06 07:25:44;;;;;;;6.47;3.90;;;2.30;99.90;;;;;;5093047;28;20039;-87
2022/03/06 07:28:10;;;;;;;7.15;3.70;;;2.20;99.90;;;;;;5093564;28;20032;-87
2022/03/06 07:30:36;;;;;;;6.15;4.20;;;2.20;99.90;;;;;;5093525;28;20020;-87
2022/03/06 07:33:02;;;;;;;5.72;3.20;;;2.00;99.90;;;;;;5094661;28;20471;-87
2022/03/06 07:35:29;;;;;;;4.53;3.35;;;1.90;99.90;;;;;;5093451;28;20017;-87
2022/03/06 07:37:56;;;;;;;4.95;3.15;;;1.70;99.90;;;;;;5093257;28;20382;-87
2022/03/06 07:40:23;;;;;;;5.65;3.80;;;1.60;99.90;;;;;;5092998;28;20051;-87
2022/03/06 07:42:49;;;;;;;4.25;2.72;;;1.60;99.90;;;;;;5092752;28;20020;-87
2022/03/06 07:45:15;;;;;;;3.63;2.72;;;1.60;99.90;;;;;;5094281;28;20024;-87
2022/03/06 07:47:41;;;;;;;4.05;2.70;;;1.60;99.90;;;;;;5093244;28;20474;-87
2022/03/06 07:50:09;;;;;;;4.15;2.65;;;1.60;99.90;;;;;;5093308;28;20506;-87
2022/03/06 07:52:36;;;;;;;4.45;3.17;;;1.60;99.90;;;;;;5097106;28;20107;-86
2022/03/06 07:55:04;;;;;;;7.45;3.65;;;1.50;99.90;;;;;;5094964;28;20098;-86
2022/03/06 07:57:30;;;;;;;12.60;7.13;;;1.50;99.90;;;;;;5094152;28;20024;-87
2022/03/06 07:59:55;;;;;;;5.28;3.50;;;1.50;99.90;;;;;;5093565;28;20081;-87
2022/03/06 08:02:21;;;;;;;5.60;3.53;;;1.50;99.90;;;;;;5093148;28;20119;-86
2022/03/06 08:04:47;;;;;;;5.47;3.30;;;1.50;99.90;;;;;;5093300;28;20034;-88
2022/03/06 08:07:13;;;;;;;4.80;3.22;;;1.60;99.90;;;;;;5092966;28;20020;-87
2022/03/06 08:09:39;;;;;;;5.70;2.80;;;1.60;99.90;;;;;;5094560;28;20449;-87
2022/03/06 08:12:05;;;;;;;3.65;2.97;;;1.60;99.90;;;;;;5094142;28;20024;-87
2022/03/06 08:14:31;;;;;;;5.38;3.63;;;1.60;99.90;;;;;;5096754;28;20024;-86
2022/03/06 08:16:56;;;;;;;4.10;2.88;;;1.60;99.90;;;;;;5099027;28;20035;-87
2022/03/06 08:19:22;;;;;;;5.90;3.45;;;1.60;99.90;;;;;;5097038;28;20020;-87
2022/03/06 08:21:48;;;;;;;3.78;2.70;;;1.70;99.90;;;;;;5098170;28;20016;-87
2022/03/06 08:24:15;;;;;;;3.70;2.65;;;1.60;99.90;;;;;;5096971;28;20028;-87
2022/03/06 08:26:41;;;;;;;3.13;2.38;;;1.60;99.90;;;;;;5096603;28;20375;-87
2022/03/06 08:29:06;;;;;;;3.70;2.58;;;1.60;99.90;;;;;;5096908;28;20024;-87
2022/03/06 08:31:32;;;;;;;3.58;2.83;;;1.60;99.90;;;;;;5096725;28;20031;-87
2022/03/06 08:33:58;;;;;;;3.60;2.72;;;1.60;99.90;;;;;;5096778;28;20024;-87
2022/03/06 08:36:24;;;;;;;4.30;2.90;;;1.60;99.90;;;;;;5096741;28;20485;-86
2022/03/06 08:38:50;;;;;;;5.25;3.25;;;1.70;99.90;;;;;;5096670;28;20039;-87
2022/03/06 08:41:16;;;;;;;22.60;12.60;;;1.70;99.90;;;;;;5097781;28;20028;-88
2022/03/06 08:43:42;;;;;;;8.63;5.18;;;1.60;99.90;;;;;;5096748;28;20028;-88
2022/03/06 08:46:07;;;;;;;5.95;3.30;;;1.70;99.90;;;;;;5096615;28;20115;-88
2022/03/06 08:48:36;;;;;;;4.50;3.25;;;1.70;99.90;;;;;;5096424;28;20024;-88
2022/03/06 08:51:04;;;;;;;4.35;3.10;;;1.70;99.90;;;;;;5096437;28;20031;-88
2022/03/06 08:53:31;;;;;;;4.88;3.05;;;1.70;99.90;;;;;;5096292;28;20518;-88
2022/03/06 08:55:56;;;;;;;4.85;2.90;;;1.90;99.90;;;;;;5096699;28;20044;-88
2022/03/06 08:58:22;;;;;;;4.32;3.10;;;1.90;99.90;;;;;;5097204;28;20497;-88
2022/03/06 09:00:48;;;;;;;4.50;3.00;;;2.00;99.90;;;;;;5095821;28;20024;-88
2022/03/06 09:03:14;;;;;;;4.50;2.90;;;2.20;99.90;;;;;;5095937;28;20020;-88
2022/03/06 09:05:40;;;;;;;2.83;2.38;;;2.50;99.90;;;;;;5096083;28;20028;-88
2022/03/06 09:08:10;;;;;;;2.92;2.15;;;2.70;99.90;;;;;;5097232;28;20470;-88
2022/03/06 09:10:38;;;;;;;2.58;2.25;;;2.80;99.90;;;;;;5097241;28;20035;-88
2022/03/06 09:13:04;;;;;;;3.85;2.80;;;3.00;99.90;;;;;;5095841;28;20473;-88
2022/03/06 09:15:31;;;;;;;4.72;3.13;;;3.10;99.90;;;;;;5095896;28;20039;-88
2022/03/06 09:17:57;;;;;;;4.03;3.20;;;3.40;99.90;;;;;;5096803;28;20095;-88
2022/03/06 09:20:23;;;;;;;3.75;2.88;;;3.30;99.00;;;;;;5095671;28;20126;-88
2022/03/06 09:22:49;;;;;;;64.10;24.90;;;3.50;99.90;;;;;;5095645;28;20032;-88
2022/03/06 09:25:15;;;;;;;37.78;17.67;;;3.50;99.90;;;;;;5095639;28;20020;-88
2022/03/06 09:27:41;;;;;;;7.25;3.42;;;3.50;98.90;;;;;;5095883;28;20073;-88
2022/03/06 09:30:08;;;;;;;5.90;3.45;;;3.40;98.90;;;;;;5095787;28;20058;-88
2022/03/06 09:32:34;;;;;;;3.88;3.10;;;3.50;99.80;;;;;;5095613;28;20053;-88
2022/03/06 09:35:00;;;;;;;5.78;3.67;;;3.50;99.60;;;;;;5095605;28;20032;-87
2022/03/06 09:37:26;;;;;;;4.40;3.30;;;3.50;99.40;;;;;;5095528;28;20073;-88
2022/03/06 09:39:52;;;;;;;5.25;2.97;;;3.50;99.90;;;;;;5096583;28;20020;-87
2022/03/06 09:42:19;;;;;;;5.43;3.58;;;3.40;99.80;;;;;;5095325;28;20452;-87
2022/03/06 09:44:49;;;;;;;5.07;3.22;;;3.50;99.90;;;;;;5095478;28;20035;-87
2022/03/06 09:47:15;;;;;;;9.32;5.20;;;3.40;99.90;;;;;;5095260;28;20042;-87
2022/03/06 09:49:47;;;;;;;6.40;3.85;;;3.40;99.90;;;;;;5095454;28;20032;-87
2022/03/06 09:52:13;;;;;;;4.28;3.10;;;3.40;99.90;;;;;;5095442;28;20028;-87
2022/03/06 09:54:39;;;;;;;4.97;3.13;;;3.40;99.90;;;;;;5095246;28;20484;-87
2022/03/06 09:57:06;;;;;;;4.40;3.50;;;3.20;99.90;;;;;;5094946;28;20038;-88
2022/03/06 09:59:34;;;;;;;3.92;2.95;;;3.10;99.90;;;;;;5094689;28;20024;-87
2022/03/06 10:02:01;;;;;;;3.80;3.00;;;3.10;99.90;;;;;;5078495;28;20122;-87
2022/03/06 10:04:30;;;;;;;3.17;2.70;;;3.00;99.90;;;;;;5094876;28;20024;-88
2022/03/06 10:07:04;;;;;;;4.97;3.25;;;3.00;99.90;;;;;;5094856;28;20035;-87
2022/03/06 10:09:32;;;;;;;4.35;3.17;;;2.80;99.90;;;;;;5094912;28;20028;-87
2022/03/06 10:11:58;;;;;;;5.07;3.45;;;2.70;99.90;;;;;;5096174;28;20016;-87
2022/03/06 10:14:35;;;;;;;4.30;3.08;;;2.60;99.90;;;;;;5094947;28;20020;-87
2022/03/06 10:17:09;;;;;;;7.20;3.28;;;2.50;99.00;;;;;;5094849;28;20020;-87
2022/03/06 10:19:57;;;;;;;3.88;2.50;;;2.40;99.90;;;;;;5095975;28;20022;-88
2022/03/06 10:22:32;;;;;;;2.80;1.80;;;2.40;99.10;;;;;;5094990;28;20035;-88
2022/03/06 10:24:59;;;;;;;3.67;2.33;;;2.50;97.30;;;;;;5095707;28;20017;-88
2022/03/06 10:27:46;;;;;;;2.80;2.35;;;2.60;96.90;;;;;;5095677;28;20051;-88
2022/03/06 10:30:32;;;;;;;2.85;2.20;;;2.90;98.30;;;;;;5094581;28;20020;-89
2022/03/06 10:33:07;;;;;;;2.67;2.42;;;3.10;93.10;;;;;;5094523;28;20031;-89
2022/03/06 10:35:39;;;;;;;2.88;2.50;;;3.20;95.70;;;;;;5096101;28;20024;-89
2022/03/06 10:38:27;;;;;;;3.95;2.55;;;3.30;93.10;;;;;;5094578;28;20028;-89
2022/03/06 10:40:55;;;;;;;22.42;6.50;;;3.40;93.00;;;;;;5094619;28;20020;-89
2022/03/06 10:43:28;;;;;;;8.45;3.70;;;3.40;92.20;;;;;;5094513;28;20487;-89
2022/03/06 10:46:09;;;;;;;3.17;2.40;;;3.50;94.80;;;;;;5094273;28;20063;-90
2022/03/06 10:48:35;;;;;;;5.72;3.97;;;3.40;90.70;;;;;;5094289;28;20539;-89
2022/03/06 10:51:06;;;;;;;61.80;12.10;;;3.50;92.90;;;;;;5094231;28;20371;-89
2022/03/06 10:53:32;;;;;;;24.67;6.75;;;3.50;95.40;;;;;;5089206;28;20020;-89
2022/03/06 10:56:15;;;;;;;9.95;4.13;;;3.40;94.20;;;;;;5094507;28;20020;-89
2022/03/06 10:58:42;;;;;;;5.25;3.00;;;3.20;91.00;;;;;;5094229;28;20038;-89
2022/03/06 11:01:09;;;;;;;52.22;17.17;;;3.00;93.60;;;;;;5093964;28;20031;-89
2022/03/06 11:03:36;;;;;;;21.45;8.75;;;2.90;94.10;;;;;;5094043;28;20402;-89
2022/03/06 11:06:03;;;;;;;8.60;4.03;;;2.80;94.50;;;;;;5095192;28;20028;-89
2022/03/06 11:08:29;;;;;;;5.28;3.50;;;2.70;95.30;;;;;;5094921;28;20016;-89
2022/03/06 11:10:55;;;;;;;3.65;2.60;;;2.60;94.20;;;;;;5093872;28;20485;-89
2022/03/06 11:13:21;;;;;;;2.45;2.20;;;2.60;93.40;;;;;;5095117;28;20028;-89
2022/03/06 11:15:47;;;;;;;3.83;2.63;;;2.60;95.10;;;;;;5093683;28;20556;-89
2022/03/06 11:18:13;;;;;;;2.35;2.10;;;2.70;94.70;;;;;;5093855;28;20030;-89
2022/03/06 11:20:40;;;;;;;3.25;2.60;;;3.00;94.30;;;;;;5093943;28;20460;-89
2022/03/06 11:23:22;;;;;;;4.22;2.90;;;3.30;91.70;;;;;;5094084;28;20059;-89
2022/03/06 11:26:12;;;;;;;3.63;2.78;;;3.60;94.70;;;;;;5093671;28;20127;-90
2022/03/06 11:28:49;;;;;;;3.95;2.60;;;4.00;94.80;;;;;;5093648;28;20095;-89
2022/03/06 11:31:15;;;;;;;3.25;2.33;;;4.20;95.00;;;;;;5094853;28;20062;-88
2022/03/06 11:34:03;;;;;;;4.63;2.95;;;4.40;95.60;;;;;;5093341;28;20028;-89
2022/03/06 11:36:30;;;;;;;6.68;5.25;;;4.50;93.60;;;;;;5093464;28;20479;-89
2022/03/06 11:38:56;;;;;;;5.90;3.72;;;4.40;94.30;;;;;;5093546;28;20121;-89
2022/03/06 11:41:25;;;;;;;4.63;2.75;;;4.40;93.60;;;;;;5093792;28;20020;-89
2022/03/06 11:43:53;;;;;;;4.45;2.90;;;4.30;91.50;;;;;;5093458;28;20024;-88
2022/03/06 11:46:26;;;;;;;3.53;3.13;;;4.20;91.60;;;;;;5094599;28;20484;-88
2022/03/06 11:49:03;;;;;;;3.20;2.72;;;4.10;92.40;;;;;;5093260;28;20474;-89
2022/03/06 11:51:30;;;;;;;2.40;2.17;;;3.90;91.40;;;;;;5094031;28;20024;-89
2022/03/06 11:54:06;;;;;;;3.40;2.70;;;3.80;89.40;;;;;;5094317;28;20027;-88
2022/03/06 11:56:35;;;;;;;2.95;2.47;;;3.60;90.30;;;;;;5093285;28;20024;-88
2022/03/06 11:59:24;;;;;;;2.95;2.15;;;3.60;92.30;;;;;;5093265;28;20039;-89
2022/03/06 12:02:01;;;;;;;2.72;2.15;;;3.50;90.40;;;;;;5093421;28;20063;-89
2022/03/06 12:04:31;;;;;;;2.47;1.90;;;3.50;91.20;;;;;;5093427;28;20453;-88
2022/03/06 12:06:58;;;;;;;;;;;3.50;91.60;;;;;;5094841;28;20095;-88
2022/03/06 12:09:28;;;;;;;3.28;1.98;;;3.50;90.00;;;;;;5093138;28;19908;-86
2022/03/06 12:11:58;;;;;;;2.30;2.00;;;3.50;92.90;;;;;;5093024;28;20086;-89
2022/03/06 12:14:32;;;;;;;3.63;2.55;;;3.50;92.10;;;;;;5093042;28;20028;-89
2022/03/06 12:17:02;;;;;;;2.58;2.28;;;3.50;91.60;;;;;;5092982;28;20030;-89
2022/03/06 12:19:44;;;;;;;7.50;2.50;;;3.50;92.40;;;;;;5092924;28;20042;-88
2022/03/06 12:22:15;;;;;;;3.35;2.30;;;3.50;93.00;;;;;;5092952;28;20024;-89
2022/03/06 12:24:43;;;;;;;3.83;2.40;;;3.40;91.60;;;;;;5092980;28;20446;-89
2022/03/06 12:27:17;;;;;;;4.35;2.80;;;3.40;92.20;;;;;;5093172;28;20044;-89
2022/03/06 12:29:47;;;;;;;4.80;2.75;;;3.40;92.10;;;;;;5092734;28;20023;-89
2022/03/06 12:32:25;;;;;;;3.58;2.80;;;3.40;93.10;;;;;;5093205;28;20035;-89
2022/03/06 12:35:12;;;;;;;3.08;2.50;;;3.30;88.20;;;;;;5092777;28;20402;-88
2022/03/06 12:37:43;;;;;;;2.22;2.03;;;3.40;91.60;;;;;;5092917;28;20024;-88
2022/03/06 12:40:15;;;;;;;4.05;2.70;;;3.50;92.00;;;;;;5092693;28;20024;-88
2022/03/06 12:42:43;;;;;;;5.07;3.45;;;3.50;92.50;;;;;;5093762;28;20362;-88
2022/03/06 12:45:14;;;;;;;3.30;2.58;;;3.60;92.80;;;;;;5093043;28;20123;-88
2022/03/06 12:47:40;;;;;;;;;;;3.70;92.70;;;;;;5093219;28;20032;-88
2022/03/06 12:50:11;;;;;;;5.05;2.60;;;3.70;90.80;;;;;;5092884;28;19911;-89
2022/03/06 12:52:38;;;;;;;3.22;2.65;;;3.70;93.10;;;;;;5092722;28;20378;-88
2022/03/06 12:55:07;;;;;;;3.85;2.78;;;3.80;92.50;;;;;;5092608;28;20043;-88
2022/03/06 12:57:40;;;;;;;4.57;3.25;;;3.80;92.50;;;;;;5093107;28;20020;-89
2022/03/06 13:00:19;;;;;;;5.40;3.13;;;3.80;93.00;;;;;;5092694;28;20432;-89